Terminal Aerodrome Forecast
Issued by NWS

Home | Current Version | Previous Version | Text Only | Print | Product List | Glossary On
Versions: 1 2 3 4 5 6 7 8 9 10 11 12 13 14 15 16 17 18 19 20 21 22 23 24 25
000
FTUS43 KDLH 050149 AAB
TAFBRD
TAF AMD
KBRD 050149Z 0502/0524 24011KT P6SM SCT015 OVC025
     FM050600 24004KT 4SM BR BKN015
     FM050900 20004KT P6SM BKN015
     FM051700 13009KT P6SM OVC015
     FM052000 15007KT P6SM VCSH OVC008=

USA.gov is the U.S. government's official web portal to all federal, state and local government web resources and services.